createdAt,value
2017-05-08T07:26:00.054Z,10372
2017-05-08T07:27:04.501Z,11544
2017-05-08T07:28:08.866Z,14720
2017-05-08T07:29:13.275Z,19136
2017-05-08T07:30:17.682Z,21696
2017-05-08T07:31:23.046Z,19328
2017-05-08T07:32:27.440Z,17152
2017-05-08T07:33:31.873Z,13844
2017-05-08T07:34:36.275Z,14484
2017-05-08T07:35:40.657Z,15688
2017-05-08T07:36:45.139Z,14464
2017-05-08T07:37:49.510Z,15904
2017-05-08T07:38:53.819Z,18944
2017-05-08T07:39:58.211Z,13932
2017-05-08T07:41:02.540Z,12916
2017-05-08T07:42:06.875Z,14536
2017-05-08T07:43:11.260Z,12280
2017-05-08T07:44:15.729Z,11628
2017-05-08T07:45:20.081Z,15296
2017-05-08T07:46:24.444Z,21184
2017-05-08T07:47:28.804Z,22720
2017-05-08T07:48:33.157Z,22496
2017-05-08T07:49:37.564Z,20960
2017-05-08T07:50:41.918Z,19264
2017-05-08T07:51:46.308Z,23712
2017-05-08T07:52:50.634Z,26048
2017-05-08T07:53:55.231Z,19328
2017-05-08T07:54:59.676Z,23104
2017-05-08T07:56:04.062Z,22688
2017-05-08T07:57:08.432Z,18880
2017-05-08T07:58:12.861Z,19072
2017-05-08T07:59:17.309Z,17280
2017-05-08T08:00:21.749Z,17184
2017-05-08T08:01:26.135Z,13664
2017-05-08T08:02:30.505Z,14000
2017-05-08T08:03:34.888Z,13524
2017-05-08T08:04:39.292Z,16608
2017-05-08T08:05:43.677Z,13780
2017-05-08T08:06:48.013Z,15140
2017-05-08T08:07:52.483Z,14104
2017-05-08T08:08:56.842Z,16676
2017-05-08T08:10:01.216Z,19136
2017-05-08T08:11:05.675Z,22272
2017-05-08T08:12:10.081Z,18560
2017-05-08T08:13:14.555Z,18176
2017-05-08T08:14:19.020Z,17728
2017-05-08T08:15:23.422Z,17088
2017-05-08T08:16:27.793Z,15420
2017-05-08T08:17:32.114Z,18080
2017-05-08T08:18:36.463Z,19296
2017-05-08T08:19:40.871Z,18112
2017-05-08T08:20:46.253Z,16164
2017-05-08T08:21:50.620Z,14876
2017-05-08T08:22:55.065Z,17728
2017-05-08T08:23:59.412Z,22304
2017-05-08T08:25:03.795Z,21152
2017-05-08T08:26:08.194Z,17920
2017-05-08T08:27:12.571Z,14992
2017-05-08T08:28:16.974Z,14616
2017-05-08T08:29:21.389Z,13544
2017-05-08T08:30:25.852Z,13748
2017-05-08T08:31:30.273Z,17664
2017-05-08T08:32:34.847Z,19744
2017-05-08T08:33:39.198Z,21408
2017-05-08T08:34:43.622Z,16552
2017-05-08T08:35:48.103Z,12048
2017-05-08T08:36:52.522Z,12052
2017-05-08T08:37:56.907Z,12604
2017-05-08T08:39:01.535Z,12632
2017-05-08T08:40:05.920Z,12812
2017-05-08T08:41:10.342Z,14164
2017-05-08T08:42:14.667Z,13020
2017-05-08T08:43:19.093Z,14528
2017-05-08T08:44:23.472Z,15824
2017-05-08T08:45:27.805Z,15612
2017-05-08T08:46:32.192Z,14456
2017-05-08T08:47:36.626Z,13936
2017-05-08T08:48:41.004Z,15424
2017-05-08T08:49:45.383Z,17036
2017-05-08T08:50:50.452Z,18848
2017-05-08T08:51:54.893Z,19136
2017-05-08T08:52:59.429Z,18208
2017-05-08T08:54:03.851Z,17568
2017-05-08T08:55:08.287Z,18240
2017-05-08T08:56:12.687Z,17248
2017-05-08T08:57:17.095Z,18624
2017-05-08T08:58:21.444Z,21248
2017-05-08T08:59:25.893Z,20480
2017-05-08T09:00:30.278Z,18912
2017-05-08T09:01:34.712Z,17600
2017-05-08T09:02:39.128Z,16136
2017-05-08T09:03:43.565Z,13912
2017-05-08T09:04:47.975Z,11436
2017-05-08T09:05:52.447Z,9536
2017-05-08T09:06:57.562Z,9820
2017-05-08T09:08:01.953Z,12640
2017-05-08T09:09:06.299Z,16828
2017-05-08T09:10:10.735Z,20032
2017-05-08T09:11:15.134Z,23200
2017-05-08T09:12:19.562Z,20736
2017-05-08T09:13:23.913Z,19264
2017-05-08T09:14:28.510Z,16740
2017-05-08T09:15:32.944Z,17344
2017-05-08T09:16:37.336Z,15564
2017-05-08T09:17:42.001Z,14016
2017-05-08T09:18:46.351Z,14720
2017-05-08T09:19:50.741Z,13684
2017-05-08T09:20:55.305Z,17664
2017-05-08T09:21:59.683Z,20320
2017-05-08T09:23:04.127Z,19584
2017-05-08T09:24:08.531Z,18432
2017-05-08T09:25:13.066Z,21824
2017-05-08T09:26:17.493Z,24832
2017-05-08T09:27:21.992Z,18112
2017-05-08T09:28:26.448Z,14948
2017-05-08T09:29:30.809Z,12540
2017-05-08T09:30:35.256Z,10592
2017-05-08T09:31:39.646Z,11072
2017-05-08T09:32:44.198Z,11320
2017-05-08T09:33:49.595Z,10308
2017-05-08T09:34:54.026Z,10756
2017-05-08T09:35:58.479Z,13152
2017-05-08T09:37:02.932Z,16288
2017-05-08T09:38:08.048Z,20064
2017-05-08T09:39:12.459Z,20608
2017-05-08T09:40:16.820Z,19520
2017-05-08T09:41:21.188Z,18560
2017-05-08T09:42:25.583Z,15900
2017-05-08T09:43:30.084Z,16296
2017-05-08T09:44:34.462Z,19456
2017-05-08T09:45:38.884Z,21248
2017-05-08T09:46:43.342Z,21696
2017-05-08T09:47:47.635Z,20256
2017-05-08T09:48:52.061Z,18368
2017-05-08T09:49:56.435Z,18944
2017-05-08T09:51:00.861Z,18528
2017-05-08T09:52:05.283Z,17312
2017-05-08T09:53:09.626Z,17568
2017-05-08T09:54:13.969Z,21504
2017-05-08T09:55:18.294Z,17088
2017-05-08T09:56:22.692Z,17088
2017-05-08T09:57:27.127Z,18016
2017-05-08T09:58:31.708Z,16984
2017-05-08T09:59:36.119Z,15532
2017-05-08T10:00:40.542Z,14812
2017-05-08T10:01:44.946Z,14756
2017-05-08T10:02:50.499Z,16180
2017-05-08T10:03:54.923Z,19328
2017-05-08T10:04:59.548Z,18784
2017-05-08T10:06:03.940Z,16752
2017-05-08T10:07:08.351Z,17312
2017-05-08T10:08:12.758Z,19360
2017-05-08T10:09:17.094Z,18496
2017-05-08T10:10:21.493Z,18080
2017-05-08T10:11:25.848Z,20320
2017-05-08T10:12:30.636Z,21792
2017-05-08T10:13:35.037Z,20288
2017-05-08T10:14:39.397Z,20160
2017-05-08T10:15:43.782Z,22112
2017-05-08T10:16:48.118Z,21088
2017-05-08T10:17:52.532Z,20448
2017-05-08T10:18:56.942Z,21600
2017-05-08T10:20:01.491Z,20224
2017-05-08T10:21:05.824Z,18496
2017-05-08T10:22:10.249Z,15516
2017-05-08T10:23:14.597Z,13088
2017-05-08T10:24:19.013Z,11764
2017-05-08T10:25:23.686Z,9936
2017-05-08T10:26:28.244Z,8276
2017-05-08T10:27:32.625Z,8640
2017-05-08T10:28:37.017Z,10856
2017-05-08T10:29:41.298Z,15484
2017-05-08T10:30:45.669Z,20928
2017-05-08T10:31:50.313Z,21216
2017-05-08T10:32:54.733Z,16200
2017-05-08T10:33:59.136Z,14620
2017-05-08T10:35:03.250Z,12292
2017-05-08T10:36:07.879Z,10548
2017-05-08T10:37:12.334Z,8404
2017-05-08T10:38:16.723Z,7868
2017-05-08T10:39:22.132Z,8056
2017-05-08T10:40:26.566Z,7692
2017-05-08T10:41:31.006Z,7644
2017-05-08T10:42:35.414Z,7604
2017-05-08T10:43:39.791Z,7216
2017-05-08T10:48:49.575Z,7176
